createdAt,value
2017-04-28T00:00:49.875Z,0
2017-04-28T00:02:11.700Z,0
2017-04-28T00:03:33.500Z,0
2017-04-28T00:06:10.412Z,0
2017-04-28T00:07:32.201Z,0
2017-04-28T00:08:54.261Z,0
2017-04-28T00:10:17.117Z,0
2017-04-28T00:11:38.989Z,0
2017-04-28T00:13:00.857Z,0
2017-04-28T00:14:23.864Z,0
2017-04-28T00:15:45.732Z,0
2017-04-28T00:17:07.486Z,0
2017-04-28T00:18:29.287Z,0
2017-04-28T00:19:51.070Z,0
2017-04-28T00:21:12.859Z,0
2017-04-28T00:22:35.651Z,0
2017-04-28T00:23:57.511Z,0
2017-04-28T00:25:19.505Z,0
2017-04-28T00:26:42.197Z,0
2017-04-28T00:28:05.049Z,0
2017-04-28T00:29:28.873Z,0
2017-04-28T00:30:52.556Z,0
2017-04-28T00:32:15.433Z,0
2017-04-28T00:33:37.249Z,0
2017-04-28T00:34:59.478Z,0
2017-04-28T00:36:24.621Z,0
2017-04-28T00:37:46.394Z,0
2017-04-28T00:39:09.152Z,0
2017-04-28T00:40:30.939Z,0
2017-04-28T00:41:52.986Z,0
2017-04-28T00:43:15.139Z,0
2017-04-28T00:44:37.331Z,0
2017-04-28T00:46:03.062Z,0
2017-04-28T00:48:34.102Z,0
2017-04-28T00:51:04.982Z,0
2017-04-28T00:52:26.774Z,0
2017-04-28T00:53:48.572Z,0
2017-04-28T00:55:15.037Z,0
2017-04-28T00:56:36.750Z,0
2017-04-28T00:58:00.585Z,0
2017-04-28T01:00:31.771Z,0
2017-04-28T01:01:53.601Z,0
2017-04-28T01:03:16.498Z,0
2017-04-28T01:04:38.343Z,0
2017-04-28T01:06:03.623Z,0
2017-04-28T01:07:25.332Z,0
2017-04-28T01:09:56.388Z,0
2017-04-28T01:11:18.188Z,0
2017-04-28T01:12:40.974Z,0
2017-04-28T01:14:04.897Z,0
2017-04-28T01:15:26.723Z,0
2017-04-28T01:16:48.549Z,0
2017-04-28T01:18:10.904Z,0
2017-04-28T01:19:33.060Z,0
2017-04-28T01:20:55.049Z,0
2017-04-28T01:22:21.266Z,0
2017-04-28T01:23:43.026Z,0
2017-04-28T01:25:04.927Z,0
2017-04-28T01:26:26.660Z,0
2017-04-28T01:27:48.365Z,0
2017-04-28T01:29:10.078Z,0
2017-04-28T01:30:37.113Z,0
2017-04-28T01:33:08.686Z,0
2017-04-28T01:35:40.476Z,0
2017-04-28T01:37:02.196Z,0
2017-04-28T01:38:23.992Z,0
2017-04-28T01:39:45.738Z,0
2017-04-28T01:42:17.170Z,0
2017-04-28T01:44:48.628Z,0
2017-04-28T01:47:20.262Z,0
2017-04-28T01:48:42.036Z,0
2017-04-28T01:51:13.456Z,0
2017-04-28T01:52:40.528Z,0
2017-04-28T01:55:11.629Z,0
2017-04-28T01:57:43.925Z,0
2017-04-28T02:00:15.575Z,0
2017-04-28T02:02:46.635Z,0
2017-04-28T02:05:17.551Z,0
2017-04-28T02:06:41.400Z,0
2017-04-28T02:09:12.542Z,0
2017-04-28T02:10:38.055Z,0
2017-04-28T02:12:00.020Z,0
2017-04-28T02:14:31.826Z,0
2017-04-28T02:17:04.180Z,0
2017-04-28T02:19:35.275Z,0
2017-04-28T02:20:57.125Z,0
2017-04-28T02:22:18.921Z,0
2017-04-28T02:23:44.338Z,0
2017-04-28T02:25:06.081Z,0
2017-04-28T02:27:37.127Z,0
2017-04-28T02:29:02.998Z,0
2017-04-28T02:31:33.776Z,0
2017-04-28T02:32:59.394Z,0
2017-04-28T02:34:21.108Z,0
2017-04-28T02:35:43.855Z,0
2017-04-28T02:37:05.570Z,0
2017-04-28T02:38:27.345Z,0
2017-04-28T02:39:49.154Z,0
2017-04-28T02:41:12.986Z,0
2017-04-28T02:42:34.737Z,0
2017-04-28T02:45:05.649Z,0
2017-04-28T02:46:33.068Z,0
2017-04-28T02:48:00.280Z,0
2017-04-28T02:49:26.739Z,0
2017-04-28T02:50:48.489Z,0
2017-04-28T02:52:10.248Z,0
2017-04-28T02:53:32.004Z,0
2017-04-28T02:54:53.866Z,0
2017-04-28T02:56:17.694Z,0
2017-04-28T02:57:39.418Z,0
2017-04-28T03:00:11.014Z,0
2017-04-28T03:02:43.079Z,0
2017-04-28T03:04:05.277Z,0
2017-04-28T03:06:37.411Z,0
2017-04-28T03:07:59.164Z,0
2017-04-28T03:09:24.646Z,0
2017-04-28T03:10:48.469Z,0
2017-04-28T03:12:10.213Z,0
2017-04-28T03:13:34.007Z,0
2017-04-28T03:14:55.778Z,0
2017-04-28T03:16:18.620Z,0
2017-04-28T03:18:49.914Z,0
2017-04-28T03:20:13.715Z,0
2017-04-28T03:21:36.658Z,0
2017-04-28T03:24:07.513Z,0
2017-04-28T03:25:35.172Z,0
2017-04-28T03:26:56.882Z,0
2017-04-28T03:28:20.255Z,0
2017-04-28T03:29:41.999Z,0
2017-04-28T03:31:03.710Z,0
2017-04-28T03:32:25.511Z,0
2017-04-28T03:33:49.968Z,0
2017-04-28T03:35:11.724Z,0
2017-04-28T03:36:33.448Z,0
2017-04-28T03:37:55.712Z,0
2017-04-28T03:39:17.600Z,0
2017-04-28T03:40:40.071Z,0
2017-04-28T03:42:01.805Z,0
2017-04-28T03:43:24.650Z,0
2017-04-28T03:44:47.468Z,0
2017-04-28T03:46:10.529Z,0
2017-04-28T03:48:42.646Z,0
2017-04-28T03:51:13.462Z,0
2017-04-28T03:53:47.172Z,0
2017-04-28T03:55:11.040Z,0
2017-04-28T03:56:32.775Z,0
2017-04-28T03:57:54.570Z,0
2017-04-28T04:00:25.473Z,0
2017-04-28T04:02:57.054Z,0
2017-04-28T04:04:18.801Z,0
2017-04-28T04:06:50.769Z,0
2017-04-28T04:08:12.563Z,0
2017-04-28T04:10:46.580Z,0
2017-04-28T04:12:08.760Z,0
2017-04-28T04:13:33.003Z,0
2017-04-28T04:16:05.403Z,5
2017-04-28T04:17:30.934Z,5
2017-04-28T04:20:02.379Z,5
2017-04-28T04:22:35.303Z,5
2017-04-28T04:24:00.601Z,5
2017-04-28T04:26:32.737Z,5
2017-04-28T04:29:04.487Z,10
2017-04-28T04:31:36.935Z,10
2017-04-28T04:32:58.719Z,10
2017-04-28T04:35:31.466Z,10
2017-04-28T04:38:02.449Z,10
2017-04-28T04:40:33.277Z,15
2017-04-28T04:41:55.151Z,15
2017-04-28T04:43:17.976Z,15
2017-04-28T04:44:40.149Z,20
2017-04-28T04:47:12.603Z,20
2017-04-28T04:48:38.620Z,25
2017-04-28T04:51:09.832Z,25
2017-04-28T04:52:32.935Z,30
2017-04-28T04:53:54.686Z,30
2017-04-28T04:55:20.053Z,35
2017-04-28T04:57:51.377Z,40
2017-04-28T05:00:23.775Z,50
2017-04-28T05:01:48.636Z,55
2017-04-28T05:03:10.600Z,60
2017-04-28T05:04:32.519Z,55
2017-04-28T05:05:57.926Z,55
2017-04-28T05:08:31.216Z,50
2017-04-28T05:11:02.876Z,45
2017-04-28T05:12:25.472Z,45
2017-04-28T05:14:58.536Z,45
2017-04-28T05:16:22.460Z,40
2017-04-28T05:18:55.577Z,40
2017-04-28T05:21:28.211Z,35
2017-04-28T05:22:51.350Z,35
2017-04-28T05:25:23.453Z,30
2017-04-28T05:26:49.633Z,35
2017-04-28T05:28:13.560Z,35
2017-04-28T05:30:51.640Z,35
2017-04-28T05:33:24.279Z,40
2017-04-28T05:34:51.706Z,40
2017-04-28T05:37:25.458Z,40
2017-04-28T05:38:49.427Z,40
2017-04-28T05:41:21.583Z,45
2017-04-28T05:43:53.475Z,50
2017-04-28T05:46:29.370Z,55
2017-04-28T05:47:56.956Z,60
2017-04-28T05:50:29.171Z,55
2017-04-28T05:51:52.850Z,50
2017-04-28T05:53:16.446Z,45
2017-04-28T05:54:38.313Z,45
2017-04-28T05:57:09.124Z,45
2017-04-28T05:58:31.402Z,45
2017-04-28T05:59:54.531Z,45
2017-04-28T06:02:26.263Z,45
2017-04-28T06:04:57.950Z,40
2017-04-28T06:07:29.959Z,45
2017-04-28T06:08:57.628Z,45
2017-04-28T06:10:22.862Z,50
2017-04-28T06:11:45.954Z,50
2017-04-28T06:14:17.581Z,45
2017-04-28T06:15:40.470Z,40
2017-04-28T06:17:02.286Z,45
2017-04-28T06:18:24.182Z,45
2017-04-28T06:19:46.023Z,55
2017-04-28T06:21:07.921Z,65
2017-04-28T06:22:30.180Z,75
2017-04-28T06:23:52.145Z,85
2017-04-28T06:25:14.129Z,95
2017-04-28T06:26:36.994Z,100
2017-04-28T06:27:58.753Z,100
2017-04-28T06:29:20.630Z,90
2017-04-28T06:30:42.478Z,85
2017-04-28T06:32:04.513Z,80
2017-04-28T06:33:26.497Z,70
2017-04-28T06:34:48.779Z,65
2017-04-28T06:36:11.221Z,65
2017-04-28T06:37:33.026Z,70
2017-04-28T06:38:55.740Z,70
2017-04-28T06:40:21.493Z,65
2017-04-28T06:41:43.332Z,55
2017-04-28T06:43:05.222Z,50
2017-04-28T06:44:28.107Z,45
2017-04-28T06:45:49.983Z,45
2017-04-28T06:47:12.890Z,50
2017-04-28T06:48:35.810Z,55
2017-04-28T06:49:59.976Z,60
2017-04-28T06:51:21.809Z,60
2017-04-28T06:52:44.636Z,60
2017-04-28T06:54:07.512Z,65
2017-04-28T06:55:29.405Z,65
2017-04-28T06:56:52.194Z,60
2017-04-28T06:58:13.957Z,60
2017-04-28T06:59:36.833Z,55
2017-04-28T07:00:58.546Z,55
2017-04-28T07:02:20.420Z,55
2017-04-28T07:03:42.266Z,55
2017-04-28T07:05:06.102Z,55
2017-04-28T07:06:27.898Z,55
2017-04-28T07:07:49.817Z,55
2017-04-28T07:09:11.930Z,60
2017-04-28T07:10:34.069Z,60
2017-04-28T07:11:58.335Z,60
2017-04-28T07:13:20.201Z,60
2017-04-28T07:14:43.068Z,65
2017-04-28T07:16:06.935Z,65
2017-04-28T07:17:28.735Z,70
2017-04-28T07:18:51.571Z,80
2017-04-28T07:20:14.438Z,85
2017-04-28T07:21:36.288Z,95
2017-04-28T07:23:05.117Z,100
2017-04-28T07:24:26.905Z,110
2017-04-28T07:25:48.705Z,120
2017-04-28T07:27:11.490Z,125
2017-04-28T07:28:33.215Z,140
2017-04-28T07:29:55.032Z,150
2017-04-28T07:31:16.776Z,160
2017-04-28T07:32:38.540Z,165
2017-04-28T07:34:00.387Z,165
2017-04-28T07:35:22.188Z,165
2017-04-28T07:36:45.153Z,155
2017-04-28T07:38:07.991Z,150
2017-04-28T07:39:29.783Z,150
2017-04-28T07:40:51.655Z,150
2017-04-28T07:42:13.460Z,150
2017-04-28T07:43:35.305Z,140
2017-04-28T07:44:58.391Z,120
2017-04-28T07:46:20.390Z,110
2017-04-28T07:47:44.557Z,110
2017-04-28T07:49:06.513Z,110
2017-04-28T07:50:28.368Z,110
2017-04-28T07:51:50.241Z,115
2017-04-28T07:53:11.979Z,120
2017-04-28T07:54:33.865Z,120
2017-04-28T07:55:55.649Z,115
2017-04-28T07:57:17.461Z,115
2017-04-28T07:58:39.257Z,110
2017-04-28T08:00:00.992Z,110
2017-04-28T08:01:24.785Z,110
2017-04-28T08:02:46.552Z,105
2017-04-28T08:04:08.370Z,105
2017-04-28T08:05:30.217Z,100
2017-04-28T08:06:52.719Z,100
2017-04-28T08:08:14.832Z,105
2017-04-28T08:09:36.768Z,110
2017-04-28T08:10:58.624Z,115
2017-04-28T08:12:20.363Z,115
2017-04-28T08:13:42.182Z,125
2017-04-28T08:15:04.008Z,145
2017-04-28T08:16:25.844Z,160
2017-04-28T08:17:48.632Z,170
2017-04-28T08:19:17.451Z,170
2017-04-28T08:20:44.722Z,170
2017-04-28T08:22:07.115Z,165
2017-04-28T08:23:28.957Z,165
2017-04-28T08:24:50.813Z,170
2017-04-28T08:26:12.682Z,170
2017-04-28T08:27:34.533Z,175
2017-04-28T08:28:57.382Z,175
2017-04-28T08:30:20.250Z,170
2017-04-28T08:31:42.063Z,180
2017-04-28T08:33:04.059Z,190
2017-04-28T08:34:26.835Z,205
2017-04-28T08:36:02.611Z,215
2017-04-28T08:37:24.420Z,220
2017-04-28T08:38:46.347Z,240
2017-04-28T08:40:08.110Z,265
2017-04-28T08:41:29.924Z,275
2017-04-28T08:42:52.129Z,260
2017-04-28T08:44:14.017Z,245
2017-04-28T08:45:36.776Z,235
2017-04-28T08:46:58.573Z,220
2017-04-28T08:48:20.377Z,210
2017-04-28T08:49:42.166Z,210
2017-04-28T08:51:03.997Z,195
2017-04-28T08:52:25.845Z,175
2017-04-28T08:53:47.616Z,175
2017-04-28T08:55:09.511Z,190
2017-04-28T08:56:31.492Z,195
2017-04-28T08:57:54.049Z,200
2017-04-28T08:59:15.838Z,185
2017-04-28T09:00:37.756Z,170
2017-04-28T09:01:59.492Z,155
2017-04-28T09:03:21.313Z,140
2017-04-28T09:04:43.110Z,135
2017-04-28T09:06:04.922Z,130
2017-04-28T09:07:26.778Z,130
2017-04-28T09:08:48.596Z,125
2017-04-28T09:10:10.409Z,120
2017-04-28T09:11:33.191Z,115
2017-04-28T09:12:54.971Z,110
2017-04-28T09:14:16.708Z,105
2017-04-28T09:15:38.466Z,110
2017-04-28T09:17:00.296Z,120
2017-04-28T09:18:22.506Z,130
2017-04-28T09:19:44.322Z,125
2017-04-28T09:21:07.091Z,115
2017-04-28T09:22:28.921Z,110
2017-04-28T09:23:50.653Z,100
2017-04-28T09:25:12.495Z,95
2017-04-28T09:26:34.211Z,100
2017-04-28T09:27:56.129Z,105
2017-04-28T09:29:17.987Z,105
2017-04-28T09:30:39.906Z,100
2017-04-28T09:32:03.706Z,110
2017-04-28T09:33:25.537Z,120
2017-04-28T09:34:47.413Z,125
2017-04-28T09:36:09.241Z,140
2017-04-28T09:37:31.077Z,145
2017-04-28T09:38:53.102Z,150
2017-04-28T09:40:14.965Z,155
2017-04-28T09:41:36.715Z,150
2017-04-28T09:42:58.527Z,150
2017-04-28T09:44:20.303Z,155
2017-04-28T09:45:42.106Z,165
2017-04-28T09:47:03.891Z,165
2017-04-28T09:48:25.601Z,170
2017-04-28T09:49:47.353Z,185
2017-04-28T09:51:09.211Z,190
2017-04-28T09:52:30.993Z,200
2017-04-28T09:53:53.198Z,215
2017-04-28T09:55:15.019Z,220
2017-04-28T09:56:36.916Z,225
2017-04-28T09:57:58.691Z,230
2017-04-28T09:59:21.551Z,230
2017-04-28T10:00:43.414Z,230
2017-04-28T10:02:06.223Z,225
2017-04-28T10:03:27.980Z,220
2017-04-28T10:04:50.203Z,215
2017-04-28T10:06:12.414Z,195
2017-04-28T10:07:34.743Z,175
2017-04-28T10:08:56.494Z,160
2017-04-28T10:10:18.329Z,135
2017-04-28T10:11:40.232Z,110
2017-04-28T10:13:02.057Z,120
2017-04-28T10:14:23.862Z,130
2017-04-28T10:15:45.625Z,150
2017-04-28T10:17:08.575Z,160
2017-04-28T10:18:30.391Z,170
2017-04-28T10:19:52.161Z,175
2017-04-28T10:21:13.904Z,170
2017-04-28T10:22:35.837Z,165
2017-04-28T10:23:57.719Z,165
2017-04-28T10:25:19.542Z,170
2017-04-28T10:26:41.457Z,185
2017-04-28T10:28:03.601Z,175
2017-04-28T10:29:25.346Z,180
2017-04-28T10:30:47.216Z,150
2017-04-28T10:32:09.130Z,130
2017-04-28T10:33:31.407Z,140
2017-04-28T10:34:54.203Z,150
2017-04-28T10:36:15.994Z,165
2017-04-28T10:37:38.751Z,165
2017-04-28T10:39:01.740Z,175
2017-04-28T10:40:23.789Z,195
2017-04-28T10:43:17.534Z,235
2017-04-28T10:44:39.366Z,255
2017-04-28T10:46:01.109Z,270
2017-04-28T10:47:22.900Z,280
2017-04-28T10:48:44.701Z,275
2017-04-28T10:50:06.639Z,270
2017-04-28T10:51:28.422Z,275
2017-04-28T10:52:50.266Z,310
2017-04-28T10:54:12.078Z,330
2017-04-28T10:55:34.033Z,295
2017-04-28T10:56:55.895Z,280
2017-04-28T10:58:17.833Z,270
2017-04-28T10:59:39.627Z,305
2017-04-28T11:01:01.533Z,375
2017-04-28T11:02:23.399Z,390
2017-04-28T11:03:45.211Z,315
2017-04-28T11:05:07.043Z,305
2017-04-28T11:06:28.857Z,290
2017-04-28T11:07:50.691Z,335
2017-04-28T11:09:12.492Z,380
2017-04-28T11:10:34.350Z,370
2017-04-28T11:11:56.167Z,365
2017-04-28T11:13:17.908Z,390
2017-04-28T11:14:39.789Z,380
2017-04-28T11:16:02.084Z,350
2017-04-28T11:17:23.941Z,325
2017-04-28T11:18:45.820Z,350
2017-04-28T11:20:08.659Z,340
2017-04-28T11:21:30.448Z,335
2017-04-28T11:22:52.255Z,395
2017-04-28T11:24:14.046Z,490
2017-04-28T11:25:36.090Z,545
2017-04-28T11:26:57.961Z,560
2017-04-28T11:28:19.921Z,575
2017-04-28T11:29:41.752Z,525
2017-04-28T11:31:03.588Z,490
2017-04-28T11:32:25.502Z,510
2017-04-28T11:33:47.292Z,500
2017-04-28T11:35:09.079Z,570
2017-04-28T11:36:30.964Z,660
2017-04-28T11:37:52.733Z,720
2017-04-28T11:39:14.599Z,775
2017-04-28T11:40:36.489Z,775
2017-04-28T11:41:58.346Z,770
2017-04-28T11:43:20.077Z,710
2017-04-28T11:44:42.084Z,615
2017-04-28T11:46:03.962Z,580
2017-04-28T11:47:25.777Z,495
2017-04-28T11:48:47.770Z,450
2017-04-28T11:50:10.645Z,540
2017-04-28T11:51:37.869Z,565
2017-04-28T11:52:59.953Z,590
2017-04-28T11:54:21.897Z,590
2017-04-28T11:55:43.946Z,565
2017-04-28T11:58:37.214Z,705
2017-04-28T12:00:00.565Z,725
2017-04-28T12:01:22.479Z,715
2017-04-28T12:02:45.277Z,700
2017-04-28T12:04:07.100Z,690
2017-04-28T12:05:29.892Z,680
2017-04-28T12:06:51.730Z,685
2017-04-28T12:08:13.619Z,680
2017-04-28T12:09:35.477Z,675
2017-04-28T12:10:57.300Z,675
2017-04-28T12:12:19.110Z,670
2017-04-28T12:13:40.910Z,665
2017-04-28T12:15:02.754Z,660
2017-04-28T12:16:24.585Z,660
2017-04-28T12:17:46.350Z,655
2017-04-28T12:19:08.186Z,650
2017-04-28T12:20:30.021Z,650
2017-04-28T12:21:51.928Z,650
2017-04-28T12:23:13.857Z,640
2017-04-28T12:24:35.747Z,630
2017-04-28T12:25:57.590Z,625
2017-04-28T12:27:19.445Z,615
2017-04-28T12:28:41.979Z,590
2017-04-28T12:30:03.812Z,575
2017-04-28T12:31:25.696Z,570
2017-04-28T12:32:47.505Z,570
2017-04-28T12:34:10.302Z,565
2017-04-28T12:35:32.044Z,560
2017-04-28T12:36:53.841Z,550
2017-04-28T12:38:15.712Z,575
2017-04-28T12:39:37.553Z,575
2017-04-28T12:40:59.374Z,580
2017-04-28T12:42:21.245Z,590
2017-04-28T12:43:43.111Z,585
2017-04-28T12:45:06.159Z,590
2017-04-28T12:46:27.939Z,600
2017-04-28T12:47:49.814Z,615
2017-04-28T12:49:29.207Z,625
2017-04-28T12:51:04.517Z,620
2017-04-28T12:52:26.306Z,625
2017-04-28T12:53:48.086Z,640
2017-04-28T12:55:09.922Z,660
2017-04-28T12:56:31.693Z,670
2017-04-28T12:57:53.441Z,680
2017-04-28T12:59:15.221Z,685
2017-04-28T13:00:36.982Z,685
2017-04-28T13:01:58.947Z,680
2017-04-28T13:03:21.000Z,680
2017-04-28T13:04:42.877Z,655
2017-04-28T13:06:04.854Z,625
2017-04-28T13:07:26.775Z,680
2017-04-28T13:08:48.623Z,725
2017-04-28T13:10:10.446Z,715
2017-04-28T13:11:33.962Z,700
2017-04-28T13:12:55.967Z,660
2017-04-28T13:14:17.964Z,640
2017-04-28T13:15:39.773Z,620
2017-04-28T13:17:01.569Z,545
2017-04-28T13:18:24.906Z,640
2017-04-28T13:19:46.654Z,635
2017-04-28T13:21:08.451Z,650
2017-04-28T13:22:30.259Z,720
2017-04-28T13:23:52.214Z,755
2017-04-28T13:25:14.081Z,740
2017-04-28T13:26:35.969Z,730
2017-04-28T13:27:57.834Z,720
2017-04-28T13:29:20.611Z,670
2017-04-28T13:30:42.468Z,595
2017-04-28T13:32:04.357Z,525
2017-04-28T13:33:26.226Z,480
2017-04-28T13:34:48.072Z,470
2017-04-28T13:36:09.960Z,445
2017-04-28T13:37:31.824Z,440
2017-04-28T13:38:57.715Z,425
2017-04-28T13:40:19.777Z,400
2017-04-28T13:41:41.566Z,375
2017-04-28T13:43:03.381Z,370
2017-04-28T13:44:25.232Z,370
2017-04-28T13:45:47.123Z,370
2017-04-28T13:47:08.980Z,370
2017-04-28T13:48:30.840Z,370
2017-04-28T13:49:52.658Z,370
2017-04-28T13:51:14.503Z,365
2017-04-28T13:52:36.338Z,370
2017-04-28T13:53:58.233Z,390
2017-04-28T13:55:21.155Z,395
2017-04-28T13:56:43.928Z,385
2017-04-28T13:58:05.774Z,395
2017-04-28T13:59:27.597Z,410
2017-04-28T14:00:49.362Z,400
2017-04-28T14:02:11.132Z,395
2017-04-28T14:03:32.907Z,350
2017-04-28T14:04:55.181Z,315
2017-04-28T14:06:16.982Z,285
2017-04-28T14:07:38.802Z,295
2017-04-28T14:09:01.409Z,315
2017-04-28T14:10:23.147Z,285
2017-04-28T14:11:44.950Z,250
2017-04-28T14:13:06.721Z,235
2017-04-28T14:14:28.581Z,215
2017-04-28T14:15:50.484Z,230
2017-04-28T14:17:12.303Z,270
2017-04-28T14:18:34.286Z,295
2017-04-28T14:19:56.112Z,330
2017-04-28T14:21:17.976Z,345
2017-04-28T14:22:39.893Z,365
2017-04-28T14:24:01.731Z,405
2017-04-28T14:25:23.652Z,410
2017-04-28T14:26:45.490Z,405
2017-04-28T14:28:07.349Z,410
2017-04-28T14:29:30.318Z,405
2017-04-28T14:30:54.157Z,410
2017-04-28T14:32:17.039Z,420
2017-04-28T14:33:38.791Z,430
2017-04-28T14:35:00.650Z,440
2017-04-28T14:36:22.488Z,435
2017-04-28T14:37:44.354Z,455
2017-04-28T14:39:06.154Z,450
2017-04-28T14:40:28.004Z,420
2017-04-28T14:41:49.926Z,420
2017-04-28T14:43:11.717Z,420
2017-04-28T14:44:33.528Z,465
2017-04-28T14:45:55.385Z,495
2017-04-28T14:47:17.305Z,500
2017-04-28T14:48:39.121Z,495
2017-04-28T14:50:01.162Z,490
2017-04-28T14:51:23.423Z,480
2017-04-28T14:52:45.452Z,470
2017-04-28T14:54:08.322Z,450
2017-04-28T14:55:30.225Z,435
2017-04-28T14:56:52.170Z,430
2017-04-28T14:58:13.978Z,420
2017-04-28T14:59:35.864Z,410
2017-04-28T15:00:57.672Z,395
2017-04-28T15:02:19.505Z,380
2017-04-28T15:03:41.397Z,370
2017-04-28T15:05:03.163Z,360
2017-04-28T15:06:25.033Z,355
2017-04-28T15:07:47.037Z,355
2017-04-28T15:09:08.872Z,350
2017-04-28T15:10:30.716Z,350
2017-04-28T15:11:52.607Z,340
2017-04-28T15:13:14.436Z,345
2017-04-28T15:14:36.253Z,350
2017-04-28T15:15:59.080Z,350
2017-04-28T15:17:21.172Z,350
2017-04-28T15:18:43.104Z,345
2017-04-28T15:20:15.039Z,340
2017-04-28T15:21:55.948Z,335
2017-04-28T15:23:17.721Z,360
2017-04-28T15:24:39.577Z,365
2017-04-28T15:26:02.053Z,370
2017-04-28T15:27:23.905Z,370
2017-04-28T15:28:45.883Z,370
2017-04-28T15:30:07.741Z,365
2017-04-28T15:31:29.519Z,375
2017-04-28T15:32:51.345Z,380
2017-04-28T15:34:13.160Z,385
2017-04-28T15:35:36.165Z,375
2017-04-28T15:36:57.901Z,365
2017-04-28T15:38:19.761Z,330
2017-04-28T15:39:41.510Z,335
2017-04-28T15:41:04.342Z,350
2017-04-28T15:42:26.086Z,350
2017-04-28T15:43:47.900Z,335
2017-04-28T15:45:09.670Z,325
2017-04-28T15:46:32.639Z,325
2017-04-28T15:47:54.500Z,305
2017-04-28T15:49:16.279Z,265
2017-04-28T15:50:38.060Z,245
2017-04-28T15:52:00.874Z,260
2017-04-28T15:53:22.598Z,245
2017-04-28T15:54:44.449Z,280
2017-04-28T15:56:07.279Z,305
2017-04-28T15:57:29.140Z,290
2017-04-28T15:58:51.983Z,265
2017-04-28T16:00:13.821Z,250
2017-04-28T16:01:36.103Z,235
2017-04-28T16:02:58.534Z,270
2017-04-28T16:04:20.497Z,310
2017-04-28T16:05:42.367Z,335
2017-04-28T16:07:04.235Z,340
2017-04-28T16:08:26.179Z,310
2017-04-28T16:09:48.157Z,290
2017-04-28T16:11:10.023Z,305
2017-04-28T16:12:31.848Z,330
2017-04-28T16:13:53.752Z,305
2017-04-28T16:15:15.609Z,300
2017-04-28T16:16:38.366Z,295
2017-04-28T16:18:00.181Z,340
2017-04-28T16:19:22.054Z,330
2017-04-28T16:20:43.856Z,285
2017-04-28T16:22:05.671Z,280
2017-04-28T16:23:27.565Z,290
2017-04-28T16:24:49.387Z,305
2017-04-28T16:26:11.222Z,310
2017-04-28T16:27:33.039Z,300
2017-04-28T16:28:55.341Z,290
2017-04-28T16:30:17.314Z,285
2017-04-28T16:31:39.061Z,270
2017-04-28T16:33:00.894Z,265
2017-04-28T16:34:22.748Z,260
2017-04-28T16:35:44.711Z,260
2017-04-28T16:37:07.849Z,260
2017-04-28T16:38:29.947Z,260
2017-04-28T16:39:51.741Z,250
2017-04-28T16:41:13.587Z,245
2017-04-28T16:42:35.378Z,250
2017-04-28T16:43:57.316Z,195
2017-04-28T16:45:20.092Z,140
2017-04-28T16:46:42.019Z,175
2017-04-28T16:48:03.899Z,230
2017-04-28T16:49:26.762Z,255
2017-04-28T16:50:49.549Z,255
2017-04-28T16:52:11.592Z,245
2017-04-28T16:53:33.365Z,245
2017-04-28T16:54:55.099Z,240
2017-04-28T16:56:16.929Z,230
2017-04-28T16:57:38.775Z,210
2017-04-28T16:59:01.614Z,190
2017-04-28T17:00:23.465Z,185
2017-04-28T17:01:45.379Z,180
2017-04-28T17:03:07.355Z,170
2017-04-28T17:04:29.098Z,140
2017-04-28T17:05:51.988Z,145
2017-04-28T17:07:13.815Z,155
2017-04-28T17:08:35.684Z,120
2017-04-28T17:09:57.533Z,95
2017-04-28T17:11:21.318Z,70
2017-04-28T17:12:44.581Z,75
2017-04-28T17:14:06.444Z,105
2017-04-28T17:15:28.211Z,120
2017-04-28T17:16:49.989Z,135
2017-04-28T17:18:12.805Z,145
2017-04-28T17:19:36.214Z,150
2017-04-28T17:20:57.952Z,160
2017-04-28T17:22:20.753Z,165
2017-04-28T17:23:42.576Z,165
2017-04-28T17:25:04.384Z,160
2017-04-28T17:26:26.192Z,155
2017-04-28T17:27:48.003Z,150
2017-04-28T17:29:09.779Z,150
2017-04-28T17:30:31.677Z,145
2017-04-28T17:31:56.572Z,145
2017-04-28T17:33:19.375Z,145
2017-04-28T17:34:41.589Z,140
2017-04-28T17:36:03.410Z,140
2017-04-28T17:37:25.180Z,135
2017-04-28T17:38:47.943Z,130
2017-04-28T17:40:09.752Z,125
2017-04-28T17:41:31.618Z,120
2017-04-28T17:42:53.460Z,115
2017-04-28T17:44:15.616Z,110
2017-04-28T17:45:37.739Z,105
2017-04-28T17:46:59.775Z,100
2017-04-28T17:48:22.574Z,95
2017-04-28T17:49:44.354Z,90
2017-04-28T17:51:07.139Z,85
2017-04-28T17:52:29.037Z,80
2017-04-28T17:53:51.959Z,70
2017-04-28T17:55:13.742Z,65
2017-04-28T17:56:35.574Z,60
2017-04-28T17:57:57.685Z,55
2017-04-28T17:59:19.548Z,50
2017-04-28T18:00:41.520Z,50
2017-04-28T18:02:03.538Z,45
2017-04-28T18:03:25.510Z,40
2017-04-28T18:04:47.469Z,40
2017-04-28T18:06:09.398Z,35
2017-04-28T18:07:31.193Z,35
2017-04-28T18:08:55.087Z,30
2017-04-28T18:10:17.363Z,30
2017-04-28T18:11:40.198Z,25
2017-04-28T18:13:01.983Z,25
2017-04-28T18:14:24.193Z,20
2017-04-28T18:15:47.022Z,20
2017-04-28T18:17:08.732Z,15
2017-04-28T18:18:30.532Z,15
2017-04-28T18:19:52.798Z,15
2017-04-28T18:21:15.261Z,15
2017-04-28T18:22:37.172Z,10
2017-04-28T18:23:58.953Z,10
2017-04-28T18:25:20.790Z,10
2017-04-28T18:26:42.510Z,10
2017-04-28T18:28:04.317Z,5
2017-04-28T18:29:26.480Z,5
2017-04-28T18:30:48.346Z,5
2017-04-28T18:32:10.250Z,5
2017-04-28T18:33:32.144Z,5
2017-04-28T18:34:53.988Z,0
2017-04-28T18:36:15.895Z,0
2017-04-28T18:37:37.730Z,0
2017-04-28T18:38:59.599Z,0
2017-04-28T18:40:21.483Z,0
2017-04-28T18:41:43.622Z,0
2017-04-28T18:43:05.537Z,0
2017-04-28T18:44:27.729Z,0
2017-04-28T18:45:50.356Z,0
2017-04-28T18:47:12.398Z,0
2017-04-28T18:48:34.197Z,0
2017-04-28T18:49:57.179Z,0
2017-04-28T18:51:19.030Z,0
2017-04-28T18:52:41.107Z,0
2017-04-28T18:54:03.180Z,0
2017-04-28T18:55:25.098Z,0
2017-04-28T18:56:46.939Z,0
2017-04-28T18:58:08.846Z,0
2017-04-28T18:59:30.667Z,0
2017-04-28T19:00:52.485Z,0
2017-04-28T19:02:14.431Z,0
2017-04-28T19:03:36.337Z,0
2017-04-28T19:04:58.214Z,0
2017-04-28T19:06:20.162Z,0
2017-04-28T19:07:42.112Z,0
2017-04-28T19:09:04.863Z,0
2017-04-28T19:10:26.905Z,0
2017-04-28T19:11:48.716Z,0
2017-04-28T19:13:20.283Z,0
2017-04-28T19:14:42.213Z,0
2017-04-28T19:16:04.168Z,0
2017-04-28T19:17:25.964Z,0
2017-04-28T19:18:47.835Z,0
2017-04-28T19:20:09.688Z,0
2017-04-28T19:21:31.569Z,0
2017-04-28T19:22:53.383Z,0
2017-04-28T19:24:15.168Z,0
2017-04-28T19:25:37.105Z,0
2017-04-28T19:26:58.899Z,0
2017-04-28T19:28:21.075Z,0
2017-04-28T19:29:43.574Z,0
2017-04-28T19:31:05.725Z,0
2017-04-28T19:32:27.630Z,0
2017-04-28T19:33:51.937Z,0
2017-04-28T19:35:13.711Z,0
2017-04-28T19:36:36.623Z,0
2017-04-28T19:37:58.422Z,0
2017-04-28T19:39:20.206Z,0
2017-04-28T19:40:42.095Z,0
2017-04-28T19:42:04.025Z,0
2017-04-28T19:43:25.861Z,0
2017-04-28T19:44:47.662Z,0
2017-04-28T19:46:09.535Z,0
2017-04-28T19:47:31.551Z,0
2017-04-28T19:48:54.429Z,0
2017-04-28T19:50:18.210Z,0
2017-04-28T19:51:41.039Z,0
2017-04-28T19:53:02.814Z,0
2017-04-28T19:54:24.667Z,0
2017-04-28T19:55:46.565Z,0
2017-04-28T19:57:08.309Z,0
2017-04-28T19:58:30.186Z,0
2017-04-28T19:59:52.029Z,0
2017-04-28T20:01:13.903Z,0
2017-04-28T20:02:36.794Z,0
2017-04-28T20:04:00.242Z,0
2017-04-28T20:05:22.190Z,0
2017-04-28T20:06:46.083Z,0
2017-04-28T20:08:07.979Z,0
2017-04-28T20:09:30.075Z,0
2017-04-28T20:10:52.000Z,0
2017-04-28T20:12:14.985Z,0
2017-04-28T20:13:36.939Z,0
2017-04-28T20:14:58.823Z,0
2017-04-28T20:16:20.667Z,0
2017-04-28T20:17:42.488Z,0
2017-04-28T20:19:04.313Z,0
2017-04-28T20:20:26.288Z,0
2017-04-28T20:21:49.151Z,0
2017-04-28T20:23:10.937Z,0
2017-04-28T20:24:33.783Z,0
2017-04-28T20:25:55.736Z,0
2017-04-28T20:27:17.547Z,0
2017-04-28T20:28:39.401Z,0
2017-04-28T20:30:01.293Z,0
2017-04-28T20:31:23.263Z,0
2017-04-28T20:32:45.095Z,0
2017-04-28T20:34:07.007Z,0
2017-04-28T20:35:28.857Z,0
2017-04-28T20:36:51.013Z,0
2017-04-28T20:38:13.168Z,0
2017-04-28T20:39:35.162Z,0
2017-04-28T20:40:57.039Z,0
2017-04-28T20:42:18.845Z,0
2017-04-28T20:43:40.663Z,0
2017-04-28T20:45:02.572Z,0